Map

Track Data

SID SEASON NUMBER BASIN SUBBASIN NAME ISO_TIME NATURE LAT LON WMO_WIND WMO_PRES WMO_AGENCY TRACK_TYPE DIST2LAND LANDFALL IFLAG USA_AGENCY USA_ATCF_ID USA_LAT USA_LON USA_RECORD USA_STATUS USA_WIND USA_PRES USA_SSHS USA_R34_NE USA_R34_SE USA_R34_SW USA_R34_NW USA_R50_NE USA_R50_SE USA_R50_SW USA_R50_NW USA_R64_NE USA_R64_SE USA_R64_SW USA_R64_NW USA_POCI USA_ROCI USA_RMW USA_EYE TOKYO_LAT TOKYO_LON TOKYO_GRADE TOKYO_WIND TOKYO_PRES TOKYO_R50_DIR TOKYO_R50_LONG TOKYO_R50_SHORT TOKYO_R30_DIR TOKYO_R30_LONG TOKYO_R30_SHORT TOKYO_LAND CMA_LAT CMA_LON CMA_CAT CMA_WIND CMA_PRES HKO_LAT HKO_LON HKO_CAT HKO_WIND HKO_PRES NEWDELHI_LAT NEWDELHI_LON NEWDELHI_GRADE NEWDELHI_WIND NEWDELHI_PRES NEWDELHI_CI NEWDELHI_DP NEWDELHI_POCI REUNION_LAT REUNION_LON REUNION_TYPE REUNION_WIND REUNION_PRES REUNION_TNUM REUNION_CI REUNION_RMW REUNION_R34_NE REUNION_R34_SE REUNION_R34_SW REUNION_R34_NW REUNION_R50_NE REUNION_R50_SE REUNION_R50_SW REUNION_R50_NW REUNION_R64_NE REUNION_R64_SE REUNION_R64_SW REUNION_R64_NW BOM_LAT BOM_LON BOM_TYPE BOM_WIND BOM_PRES BOM_TNUM BOM_CI BOM_RMW BOM_R34_NE BOM_R34_SE BOM_R34_SW BOM_R34_NW BOM_R50_NE BOM_R50_SE BOM_R50_SW BOM_R50_NW BOM_R64_NE BOM_R64_SE BOM_R64_SW BOM_R64_NW BOM_ROCI BOM_POCI BOM_EYE BOM_POS_METHOD BOM_PRES_METHOD NADI_LAT NADI_LON NADI_CAT NADI_WIND NADI_PRES WELLINGTON_LAT WELLINGTON_LON WELLINGTON_WIND WELLINGTON_PRES DS824_LAT DS824_LON DS824_STAGE DS824_WIND DS824_PRES TD9636_LAT TD9636_LON TD9636_STAGE TD9636_WIND TD9636_PRES TD9635_LAT TD9635_LON TD9635_WIND TD9635_PRES TD9635_ROCI NEUMANN_LAT NEUMANN_LON NEUMANN_CLASS NEUMANN_WIND NEUMANN_PRES MLC_LAT MLC_LON MLC_CLASS MLC_WIND MLC_PRES USA_GUST BOM_GUST BOM_GUST_PER REUNION_GUST REUNION_GUST_PER USA_SEAHGT USA_SEARAD_NE USA_SEARAD_SE USA_SEARAD_SW USA_SEARAD_NW STORM_SPEED STORM_DIR
1927080S15114 1927 18 SI WA NOT_NAMED 1927-03-21 06:00:00 NR -15.3000 114.300 main 645 639 _____O________ -1 -15.3000 114.300 99 9.90000 3 229
1927080S15114 1927 18 SI WA NOT_NAMED 1927-03-21 09:00:00 NR -15.3902 114.193 main 639 633 _____P________ -1 -15.3902 114.193 99 3 229
1927080S15114 1927 18 SI WA NOT_NAMED 1927-03-21 12:00:00 NR -15.4825 114.083 main 633 627 _____P________ -1 -15.4825 114.083 99 3 229
1927080S15114 1927 18 SI WA NOT_NAMED 1927-03-21 15:00:00 NR -15.5791 113.967 main 627 622 _____P________ -1 -15.5791 113.967 99 3 229
1927080S15114 1927 18 SI WA NOT_NAMED 1927-03-21 18:00:00 NR -15.6820 113.842 main 628 618 _____P________ -1 -15.6820 113.842 99 3 229
1927080S15114 1927 18 SI WA NOT_NAMED 1927-03-21 21:00:00 NR -15.7935 113.706 main 623 619 _____P________ -1 -15.7935 113.706 99 4 230
1927080S15114 1927 18 SI WA NOT_NAMED 1927-03-22 00:00:00 NR -15.9155 113.556 main 619 615 _____P________ -1 -15.9155 113.556 99 4 230
1927080S15114 1927 18 SI WA NOT_NAMED 1927-03-22 03:00:00 NR -16.0503 113.388 main 612 608 _____P________ -1 -16.0503 113.388 99 4 230
1927080S15114 1927 18 SI WA NOT_NAMED 1927-03-22 06:00:00 NR -16.2000 113.200 main 613 605 _____O________ -1 -16.2000 113.200 99 9.90000 5 230
1927080S15114 1927 18 SI WA NOT_NAMED 1927-03-22 09:00:00 NR -16.3660 112.990 main 605 602 _____P________ -1 -16.3660 112.990 99 5 230
1927080S15114 1927 18 SI WA NOT_NAMED 1927-03-22 12:00:00 NR -16.5478 112.763 main 608 599 _____P________ -1 -16.5478 112.763 99 6 230
1927080S15114 1927 18 SI WA NOT_NAMED 1927-03-22 15:00:00 NR -16.7439 112.522 main 602 583 _____P________ -1 -16.7439 112.522 99 6 229
1927080S15114 1927 18 SI WA NOT_NAMED 1927-03-22 18:00:00 NR -16.9533 112.273 main 576 565 _____P________ -1 -16.9533 112.273 99 6 228
1927080S15114 1927 18 SI WA NOT_NAMED 1927-03-22 21:00:00 NR -17.1748 112.021 main 565 553 _____P________ -1 -17.1748 112.021 99 7 227
1927080S15114 1927 18 SI WA NOT_NAMED 1927-03-23 00:00:00 NR -17.4072 111.772 main 553 542 _____P________ -1 -17.4072 111.772 99 7 225
1927080S15114 1927 18 SI WA NOT_NAMED 1927-03-23 03:00:00 NR -17.6493 111.530 main 547 528 _____P________ -1 -17.6493 111.530 99 7 222
1927080S15114 1927 18 SI WA NOT_NAMED 1927-03-23 06:00:00 NR -17.9000 111.300 main 528 521 _____O________ -1 -17.9000 111.300 99 9.90000 6 225
1927080S15114 1927 18 SI WA NOT_NAMED 1927-03-23 09:00:00 NR -18.1041 111.055 main 521 516 _____P________ -1 -18.1041 111.055 99 6 228
1927080S15114 1927 18 SI WA NOT_NAMED 1927-03-23 12:00:00 NR -18.3129 110.814 main 523 512 _____P________ -1 -18.3129 110.814 99 6 226
1927080S15114 1927 18 SI WA NOT_NAMED 1927-03-23 15:00:00 NR -18.5342 110.587 main 520 510 _____P________ -1 -18.5342 110.587 99 6 222
1927080S15114 1927 18 SI WA NOT_NAMED 1927-03-23 18:00:00 NR -18.7756 110.379 main 510 503 _____P________ -1 -18.7756 110.379 99 6 216
1927080S15114 1927 18 SI WA NOT_NAMED 1927-03-23 21:00:00 NR -19.0451 110.199 main 511 499 _____P________ -1 -19.0451 110.199 99 7 208
1927080S15114 1927 18 SI WA NOT_NAMED 1927-03-24 00:00:00 NR -19.3504 110.054 main 492 483 _____P________ -1 -19.3504 110.054 99 7 200
1927080S15114 1927 18 SI WA NOT_NAMED 1927-03-24 03:00:00 NR -19.6994 109.952 main 483 470 _____P________ -1 -19.6994 109.952 99 8 191
1927080S15114 1927 18 SI WA NOT_NAMED 1927-03-24 06:00:00 NR -20.1000 109.900 main 470 440 _____O________ -1 -20.1000 109.900 99 9.90000 9 0
1927080S15114 1927 18 SI WA NOT_NAMED 1927-03-24 09:00:00 NR -20.5603 109.967 main 434 403 _____P________ -1 -20.5603 109.967 99 10 169
1927080S15114 1927 18 SI WA NOT_NAMED 1927-03-24 12:00:00 NR -21.0720 110.094 main 398 357 _____P________ -1 -21.0720 110.094 99 11 166
1927080S15114 1927 18 SI WA NOT_NAMED 1927-03-24 15:00:00 NR -21.6277 110.260 main 357 331 _____P________ -1 -21.6277 110.260 99 12 164
1927080S15114 1927 18 SI WA NOT_NAMED 1927-03-24 18:00:00 NR -22.2195 110.447 main 331 307 _____P________ -1 -22.2195 110.447 99 13 164
1927080S15114 1927 18 SI WA NOT_NAMED 1927-03-24 21:00:00 NR -22.8400 110.635 main 308 280 _____P________ -1 -22.8400 110.635 99 13 165
1927080S15114 1927 18 SI WA NOT_NAMED 1927-03-25 00:00:00 NR -23.4817 110.804 main 278 255 _____P________ -1 -23.4817 110.804 99 13 168
1927080S15114 1927 18 SI WA NOT_NAMED 1927-03-25 03:00:00 NR -24.1375 110.932 main 255 242 _____P________ -1 -24.1375 110.932 99 13 172
1927080S15114 1927 18 SI WA NOT_NAMED 1927-03-25 06:00:00 NR -24.8000 111.000 main 246 246 _____O________ -1 -24.8000 111.000 99 9.90000 13 184
1927080S15114 1927 18 SI WA NOT_NAMED 1927-03-25 09:00:00 NR -25.4442 110.822 main 262 256 _____P________ -1 -25.4442 110.822 99 14 197
1927080S15114 1927 18 SI WA NOT_NAMED 1927-03-25 12:00:00 NR -26.1022 110.572 main 269 269 _____P________ -1 -26.1022 110.572 99 14 200
1927080S15114 1927 18 SI WA NOT_NAMED 1927-03-25 15:00:00 NR -26.7694 110.281 main 303 303 _____P________ -1 -26.7694 110.281 99 14 201
1927080S15114 1927 18 SI WA NOT_NAMED 1927-03-25 18:00:00 NR -27.4414 109.983 main 349 349 _____P________ -1 -27.4414 109.983 99 14 201
1927080S15114 1927 18 SI WA NOT_NAMED 1927-03-25 21:00:00 NR -28.1142 109.710 main 408 408 _____P________ -1 -28.1142 109.710 99 14 198
1927080S15114 1927 18 SI WA NOT_NAMED 1927-03-26 00:00:00 NR -28.7840 109.499 main 463 463 _____P________ -1 -28.7840 109.499 99 14 192
1927080S15114 1927 18 SI WA NOT_NAMED 1927-03-26 03:00:00 NR -29.4471 109.383 main 489 489 _____P________ -1 -29.4471 109.383 99 13 184
1927080S15114 1927 18 SI WA NOT_NAMED 1927-03-26 06:00:00 NR -30.1000 109.400 main 516 513 _____O________ -1 -30.1000 109.400 99 9.90000 14 168
1927080S15114 1927 18 SI WA NOT_NAMED 1927-03-26 09:00:00 NR -30.8030 109.731 main 515 479 _____P________ -1 -30.8030 109.731 99 16 154
1927080S15114 1927 18 SI WA NOT_NAMED 1927-03-26 12:00:00 NR -31.5055 110.205 main 479 421 _____P________ -1 -31.5055 110.205 99 17 147
1927080S15114 1927 18 SI WA NOT_NAMED 1927-03-26 15:00:00 NR -32.1924 110.786 main 421 345 _____P________ -1 -32.1924 110.786 99 17 142
1927080S15114 1927 18 SI WA NOT_NAMED 1927-03-26 18:00:00 NR -32.8491 111.440 main 345 269 _____P________ -1 -32.8491 111.440 99 17 138
1927080S15114 1927 18 SI WA NOT_NAMED 1927-03-26 21:00:00 NR -33.4612 112.128 main 268 202 _____P________ -1 -33.4612 112.128 99 16 136
1927080S15114 1927 18 SI WA NOT_NAMED 1927-03-27 00:00:00 NR -34.0153 112.812 main 202 150 _____P________ -1 -34.0153 112.812 99 15 133
1927080S15114 1927 18 SI WA NOT_NAMED 1927-03-27 03:00:00 NR -34.4988 113.449 main 153 114 _____P________ -1 -34.4988 113.449 99 13 132
1927080S15114 1927 18 SI WA NOT_NAMED 1927-03-27 06:00:00 NR -34.9000 114.000 main 114 105 _____O________ -1 -34.9000 114.000 99 9.90000 11 132
1927080S15114 1927 18 SI WA NOT_NAMED 1927-03-27 09:00:00 NR -35.2117 114.430 main 109 104 _____P________ -1 -35.2117 114.430 99 8 132
1927080S15114 1927 18 SI WA NOT_NAMED 1927-03-27 12:00:00 NR -35.4429 114.745 main 117 117 _____P________ -1 -35.4429 114.745 99 6 132
1927080S15114 1927 18 SI WA NOT_NAMED 1927-03-27 15:00:00 NR -35.6056 114.959 main 127 127 _____P________ -1 -35.6056 114.959 99 4 134
1927080S15114 1927 18 SI WA NOT_NAMED 1927-03-27 18:00:00 NR -35.7119 115.089 main 129 129 _____P________ -1 -35.7119 115.089 99 2 137
1927080S15114 1927 18 SI WA NOT_NAMED 1927-03-27 21:00:00 NR -35.7732 115.152 main 132 132 _____P________ -1 -35.7732 115.152 99 1 148
1927080S15114 1927 18 SI WA NOT_NAMED 1927-03-28 00:00:00 NR -35.8008 115.163 main 132 132 _____P________ -1 -35.8008 115.163 99 0 214
1927080S15114 1927 18 SI WA NOT_NAMED 1927-03-28 03:00:00 NR -35.8060 115.140 main 138 138 _____P________ -1 -35.8060 115.140 99 1 271
1927080S15114 1927 18 SI WA NOT_NAMED 1927-03-28 06:00:00 NR -35.8000 115.100 main 138 _____O________ -1 -35.8000 115.100 99 9.90000 1 279

About IBTrACS Database

This database is a web-friendly format of International Best Track Archive for Climate Stewardship (IBTrACS), a global best track data archive curated by NOAA dating back to 1842.

Updated: 2021-12-08